createdAt,value
2018-08-23T00:01:38.725Z,1.03
2018-08-23T00:04:11.625Z,1.30
2018-08-23T00:06:53.566Z,1.13
2018-08-23T00:09:25.216Z,1.30
2018-08-23T00:11:56.719Z,1.83
2018-08-23T00:14:28.349Z,1.30
2018-08-23T00:16:59.858Z,1.73
2018-08-23T00:19:31.527Z,1.23
2018-08-23T00:22:02.888Z,1.10
2018-08-23T00:24:34.391Z,1.30
2018-08-23T00:27:05.838Z,1.53
2018-08-23T00:29:36.956Z,1.80
2018-08-23T00:32:09.557Z,1.20
2018-08-23T00:34:41.798Z,1.40
2018-08-23T00:37:14.561Z,1.70
2018-08-23T00:39:46.203Z,1.40
2018-08-23T00:42:17.723Z,1.47
2018-08-23T00:45:02.749Z,1.20
2018-08-23T00:47:35.018Z,1.30
2018-08-23T00:50:06.642Z,1.40
2018-08-23T00:52:45.503Z,1.30
2018-08-23T00:55:33.230Z,1.30
2018-08-23T00:58:05.705Z,1.10
2018-08-23T01:00:37.458Z,1.27
2018-08-23T01:03:08.895Z,1.30
2018-08-23T01:05:41.398Z,1.50
2018-08-23T01:13:30.672Z,1.53
2018-08-23T01:16:01.704Z,1.20
2018-08-23T01:18:32.828Z,1.50
2018-08-23T01:21:09.963Z,1.40
2018-08-23T01:23:43.620Z,2.33
2018-08-23T01:26:14.709Z,1.30
2018-08-23T01:28:45.700Z,1.43
2018-08-23T01:31:29.788Z,1.50
2018-08-23T01:34:01.310Z,1.10
2018-08-23T01:36:34.619Z,1.47
2018-08-23T01:39:12.576Z,1.50
2018-08-23T01:41:43.722Z,1.20
2018-08-23T01:44:14.821Z,1.20
2018-08-23T01:46:45.869Z,1.40
2018-08-23T01:49:19.656Z,1.53
2018-08-23T01:51:50.711Z,1.70
2018-08-23T01:54:21.824Z,1.43
2018-08-23T01:56:52.864Z,1.27
2018-08-23T01:59:23.822Z,1.60
2018-08-23T02:01:55.303Z,1.03
2018-08-23T02:04:26.809Z,1.10
2018-08-23T02:06:58.015Z,1.40
2018-08-23T02:09:29.684Z,1.20
2018-08-23T02:12:01.195Z,1.50
2018-08-23T02:14:37.214Z,1.20
2018-08-23T02:17:08.779Z,1.63
2018-08-23T02:19:47.749Z,1.33
2018-08-23T02:22:19.032Z,1.40
2018-08-23T02:24:50.504Z,1.33
2018-08-23T02:27:21.899Z,1.37
2018-08-23T02:32:23.991Z,1.13
2018-08-23T02:35:06.212Z,1.60
2018-08-23T02:37:37.737Z,1.63
2018-08-23T02:40:09.324Z,1.40
2018-08-23T02:42:40.792Z,3.07
2018-08-23T02:45:16.304Z,1.70
2018-08-23T02:47:47.781Z,1.40
2018-08-23T02:50:19.381Z,1.50
2018-08-23T02:52:50.774Z,1.50
2018-08-23T02:55:21.794Z,1.50
2018-08-23T02:58:00.710Z,1.50
2018-08-23T03:00:37.269Z,1.20
2018-08-23T03:03:09.296Z,1.50
2018-08-23T03:05:42.314Z,1.80
2018-08-23T03:08:13.744Z,1.50
2018-08-23T03:10:45.007Z,1.50
2018-08-23T03:13:16.319Z,1.67
2018-08-23T03:15:47.784Z,1.67
2018-08-23T03:18:19.388Z,2.40
2018-08-23T03:23:34.965Z,1.30
2018-08-23T03:28:37.379Z,1.60
2018-08-23T03:31:08.665Z,1.20
2018-08-23T03:33:39.823Z,1.60
2018-08-23T03:36:10.786Z,1.83
2018-08-23T03:38:42.219Z,1.40
2018-08-23T03:41:13.452Z,1.87
2018-08-23T03:43:44.684Z,1.60
2018-08-23T03:46:15.771Z,1.50
2018-08-23T03:48:52.592Z,1.60
2018-08-23T03:51:23.848Z,1.67
2018-08-23T03:54:01.213Z,1.10
2018-08-23T03:56:32.538Z,1.50
2018-08-23T03:59:03.599Z,2.70
2018-08-23T04:01:34.771Z,1.60
2018-08-23T04:04:05.875Z,2.60
2018-08-23T04:06:36.876Z,1.77
2018-08-23T04:09:10.851Z,1.90
2018-08-23T04:11:42.007Z,1.63
2018-08-23T04:14:13.219Z,1.37
2018-08-23T04:16:44.475Z,1.50
2018-08-23T04:19:15.686Z,1.33
2018-08-23T04:21:46.725Z,1.40
2018-08-23T04:24:17.849Z,1.43
2018-08-23T04:26:49.225Z,2.07
2018-08-23T04:29:35.639Z,1.50
2018-08-23T04:32:06.920Z,2.73
2018-08-23T04:37:10.885Z,2.70
2018-08-23T04:39:47.371Z,1.80
2018-08-23T04:42:19.405Z,1.70
2018-08-23T04:44:53.406Z,1.40
2018-08-23T04:47:25.349Z,1.80
2018-08-23T04:49:56.801Z,1.70
2018-08-23T04:52:28.308Z,2.30
2018-08-23T04:54:59.795Z,2.30
2018-08-23T04:57:31.405Z,2.30
2018-08-23T05:00:03.229Z,2.83
2018-08-23T05:02:34.708Z,2.30
2018-08-23T05:05:06.316Z,3.40
2018-08-23T05:07:37.869Z,2.23
2018-08-23T05:10:10.700Z,4.37
2018-08-23T05:12:42.216Z,2.63
2018-08-23T05:15:13.709Z,2.13
2018-08-23T05:17:45.216Z,2.67
2018-08-23T05:20:16.685Z,2.30
2018-08-23T05:22:56.657Z,3.37
2018-08-23T05:25:27.904Z,2.60
2018-08-23T05:28:18.407Z,2.27
2018-08-23T05:30:50.681Z,2.87
2018-08-23T05:33:23.004Z,4.13
2018-08-23T05:35:54.696Z,2.97
2018-08-23T05:38:25.985Z,2.80
2018-08-23T05:41:01.780Z,3.90
2018-08-23T05:43:33.210Z,3.40
2018-08-23T05:46:04.787Z,5.47
2018-08-23T05:48:36.402Z,4.87
2018-08-23T05:51:14.381Z,4.07
2018-08-23T05:53:52.552Z,3.00
2018-08-23T05:56:23.876Z,4.93
2018-08-23T05:59:00.709Z,2.63
2018-08-23T06:01:32.291Z,2.77
2018-08-23T06:04:03.832Z,4.03
2018-08-23T06:06:35.383Z,3.90
2018-08-23T06:09:10.985Z,3.00
2018-08-23T06:11:42.706Z,3.07
2018-08-23T06:14:14.798Z,3.83
2018-08-23T06:16:49.716Z,5.13
2018-08-23T06:19:21.317Z,3.47
2018-08-23T06:21:52.771Z,3.40
2018-08-23T06:24:28.517Z,3.43
2018-08-23T06:27:03.699Z,3.07
2018-08-23T06:29:36.394Z,3.00
2018-08-23T06:32:10.323Z,4.57
2018-08-23T06:34:51.752Z,3.53
2018-08-23T06:37:23.982Z,4.03
2018-08-23T06:39:55.643Z,2.83
2018-08-23T06:42:47.208Z,2.00
2018-08-23T06:45:18.648Z,2.07
2018-08-23T06:47:54.758Z,1.90
2018-08-23T06:50:27.559Z,2.57
2018-08-23T06:52:59.362Z,2.03
2018-08-23T06:55:37.289Z,2.70
2018-08-23T06:58:08.723Z,1.87
2018-08-23T07:00:40.212Z,2.10
2018-08-23T07:03:11.418Z,2.00
2018-08-23T07:05:42.704Z,1.87
2018-08-23T07:08:14.304Z,2.03
2018-08-23T07:10:45.819Z,1.80
2018-08-23T07:13:17.313Z,1.93
2018-08-23T07:15:52.591Z,2.57
2018-08-23T07:18:24.215Z,1.83
2018-08-23T07:20:55.603Z,2.17
2018-08-23T07:23:37.662Z,1.80
2018-08-23T07:26:09.542Z,1.90
2018-08-23T07:28:40.890Z,1.90
2018-08-23T07:31:12.316Z,2.10
2018-08-23T07:33:44.769Z,2.20
2018-08-23T07:36:30.735Z,1.90
2018-08-23T07:39:02.308Z,2.10
2018-08-23T07:41:33.744Z,1.83
2018-08-23T07:44:05.212Z,1.80
2018-08-23T07:46:36.736Z,1.70
2018-08-23T07:49:08.306Z,2.10
2018-08-23T07:51:39.757Z,1.97
2018-08-23T07:54:15.226Z,1.90
2018-08-23T07:56:47.240Z,1.80
2018-08-23T07:59:18.726Z,1.93
2018-08-23T08:01:50.214Z,1.83
2018-08-23T08:04:21.743Z,2.03
2018-08-23T08:06:53.193Z,1.80
2018-08-23T08:09:27.794Z,1.70
2018-08-23T08:12:02.382Z,1.70
2018-08-23T08:14:38.316Z,2.70
2018-08-23T08:17:17.716Z,1.70
2018-08-23T08:19:54.473Z,2.10
2018-08-23T08:22:25.899Z,2.17
2018-08-23T08:27:37.214Z,1.90
2018-08-23T08:30:13.768Z,1.80
2018-08-23T08:32:45.699Z,1.80
2018-08-23T08:35:18.882Z,1.90
2018-08-23T08:40:24.721Z,1.90
2018-08-23T08:42:55.746Z,1.97
2018-08-23T08:45:29.017Z,2.00
2018-08-23T08:48:25.448Z,2.43
2018-08-23T08:51:23.207Z,1.70
2018-08-23T08:53:55.686Z,1.80
2018-08-23T08:56:39.231Z,2.10
2018-08-23T08:59:10.802Z,1.90
2018-08-23T09:01:42.361Z,1.87
2018-08-23T09:04:44.788Z,2.20
2018-08-23T09:07:15.779Z,2.00
2018-08-23T09:09:46.914Z,1.87
2018-08-23T09:14:49.204Z,1.90
2018-08-23T09:17:47.290Z,2.00
2018-08-23T09:20:19.723Z,1.90
2018-08-23T09:22:52.536Z,1.87
2018-08-23T09:25:30.193Z,3.10
2018-08-23T09:28:01.411Z,2.10
2018-08-23T09:30:33.644Z,4.00
2018-08-23T09:33:10.547Z,1.70
2018-08-23T09:35:42.349Z,1.70
2018-08-23T09:38:16.303Z,1.80
2018-08-23T09:40:47.564Z,1.73
2018-08-23T09:43:19.221Z,2.10
2018-08-23T09:45:50.450Z,2.27
2018-08-23T09:48:22.578Z,2.37
2018-08-23T09:50:53.707Z,1.97
2018-08-23T09:53:26.449Z,2.17
2018-08-23T09:55:58.444Z,2.00
2018-08-23T09:58:34.630Z,1.90
2018-08-23T10:01:10.517Z,1.97
2018-08-23T10:03:47.303Z,2.00
2018-08-23T10:06:22.644Z,2.00
2018-08-23T10:09:20.270Z,1.90
2018-08-23T10:11:56.593Z,1.90
2018-08-23T10:14:32.679Z,2.10
2018-08-23T10:17:08.823Z,2.00
2018-08-23T10:19:45.050Z,2.03
2018-08-23T10:22:18.653Z,2.00
2018-08-23T10:24:49.694Z,2.00
2018-08-23T10:27:21.364Z,3.47
2018-08-23T10:29:52.551Z,1.87
2018-08-23T10:32:23.637Z,1.70
2018-08-23T10:34:54.984Z,2.27
2018-08-23T10:37:26.500Z,1.97
2018-08-23T10:39:57.882Z,2.50
2018-08-23T10:42:29.350Z,2.37
2018-08-23T10:45:00.736Z,2.00
2018-08-23T10:47:37.325Z,2.30
2018-08-23T10:50:08.741Z,1.90
2018-08-23T10:52:40.799Z,2.30
2018-08-23T10:55:12.231Z,2.23
2018-08-23T10:57:43.494Z,1.90
2018-08-23T11:00:15.021Z,1.90
2018-08-23T11:02:46.631Z,1.83
2018-08-23T11:05:18.206Z,2.30
2018-08-23T11:07:54.652Z,2.00
2018-08-23T11:10:30.982Z,2.10
2018-08-23T11:15:38.227Z,2.27
2018-08-23T11:18:14.818Z,2.23
2018-08-23T11:20:47.582Z,2.27
2018-08-23T11:23:22.925Z,2.13
2018-08-23T11:28:27.197Z,2.10
2018-08-23T11:31:03.422Z,4.00
2018-08-23T11:33:34.757Z,1.87
2018-08-23T11:36:06.318Z,2.10
2018-08-23T11:38:37.781Z,1.90
2018-08-23T11:41:09.212Z,1.93
2018-08-23T11:43:40.720Z,2.40
2018-08-23T11:46:15.699Z,2.00
2018-08-23T11:48:49.771Z,2.10
2018-08-23T11:51:21.992Z,2.10
2018-08-23T11:56:24.211Z,2.20
2018-08-23T11:58:55.696Z,2.37
2018-08-23T12:01:27.194Z,2.10
2018-08-23T12:03:58.682Z,2.00
2018-08-23T12:06:30.421Z,2.00
2018-08-23T12:09:01.780Z,1.80
2018-08-23T12:11:33.332Z,2.00
2018-08-23T12:14:04.969Z,3.03
2018-08-23T12:19:07.301Z,2.10
2018-08-23T12:21:38.711Z,2.10
2018-08-23T12:24:10.314Z,1.90
2018-08-23T12:26:41.902Z,2.20
2018-08-23T12:29:13.404Z,2.20
2018-08-23T12:31:45.004Z,2.07
2018-08-23T12:37:09.913Z,2.37
2018-08-23T12:39:46.212Z,2.10
2018-08-23T12:42:22.427Z,1.97
2018-08-23T12:44:53.615Z,2.00
2018-08-23T12:47:24.732Z,2.10
2018-08-23T12:49:59.664Z,2.27
2018-08-23T12:52:30.741Z,2.17
2018-08-23T12:55:02.558Z,2.10
2018-08-23T12:57:33.640Z,2.00
2018-08-23T13:00:04.684Z,2.40
2018-08-23T13:02:36.456Z,2.20
2018-08-23T13:05:07.677Z,2.23
2018-08-23T13:07:38.737Z,2.70
2018-08-23T13:10:09.905Z,2.33
2018-08-23T13:15:11.642Z,2.17
2018-08-23T13:17:42.720Z,2.20
2018-08-23T13:20:13.876Z,2.30
2018-08-23T13:22:44.908Z,2.10
2018-08-23T13:25:16.378Z,2.13
2018-08-23T13:27:47.597Z,2.17
2018-08-23T13:30:18.677Z,1.90
2018-08-23T13:32:49.825Z,2.00
2018-08-23T13:35:21.395Z,2.10
2018-08-23T13:37:54.347Z,1.80
2018-08-23T13:40:25.784Z,3.30
2018-08-23T13:42:57.537Z,2.00
2018-08-23T13:45:29.207Z,2.47
2018-08-23T13:48:00.647Z,2.20
2018-08-23T13:50:32.220Z,2.00
2018-08-23T13:53:03.672Z,2.00
2018-08-23T13:55:35.247Z,2.67
2018-08-23T13:58:06.757Z,1.93
2018-08-23T14:00:40.214Z,2.43
2018-08-23T14:03:12.720Z,2.17
2018-08-23T14:05:44.313Z,2.23
2018-08-23T14:08:15.910Z,2.33
2018-08-23T14:13:18.219Z,2.37
2018-08-23T14:15:54.547Z,2.03
2018-08-23T14:18:26.201Z,2.07
2018-08-23T14:20:57.777Z,2.00
2018-08-23T14:23:29.451Z,2.33
2018-08-23T14:26:01.075Z,2.30
2018-08-23T14:28:33.313Z,2.13
2018-08-23T14:31:04.803Z,1.90
2018-08-23T14:33:36.349Z,2.03
2018-08-23T14:36:08.734Z,2.17
2018-08-23T14:38:40.402Z,2.27
2018-08-23T14:41:11.782Z,2.27
2018-08-23T14:43:43.219Z,2.20
2018-08-23T14:46:19.713Z,2.33
2018-08-23T14:48:51.298Z,2.20
2018-08-23T14:51:22.783Z,2.27
2018-08-23T14:53:54.382Z,2.00
2018-08-23T14:56:31.207Z,2.23
2018-08-23T14:59:03.336Z,2.20
2018-08-23T15:01:34.750Z,2.40
2018-08-23T15:04:06.354Z,2.03
2018-08-23T15:06:37.791Z,2.13
2018-08-23T15:09:10.343Z,2.70
2018-08-23T15:11:41.806Z,2.30
2018-08-23T15:14:13.767Z,2.13
2018-08-23T15:16:45.423Z,2.30
2018-08-23T15:19:16.828Z,2.33
2018-08-23T15:21:48.326Z,2.33
2018-08-23T15:24:19.893Z,2.53
2018-08-23T15:26:51.455Z,2.65
2018-08-23T15:29:22.744Z,2.10
2018-08-23T15:31:54.223Z,2.50
2018-08-23T15:34:25.678Z,2.20
2018-08-23T15:36:57.215Z,2.33
2018-08-23T15:39:28.721Z,2.43
2018-08-23T15:42:00.234Z,2.30
2018-08-23T15:44:32.201Z,2.50
2018-08-23T15:47:03.765Z,2.60
2018-08-23T15:49:35.212Z,2.60
2018-08-23T15:52:06.707Z,2.70
2018-08-23T15:54:38.221Z,2.60
2018-08-23T15:57:09.711Z,2.50
2018-08-23T15:59:41.204Z,4.40
2018-08-23T16:02:12.734Z,3.27
2018-08-23T16:04:44.318Z,2.50
2018-08-23T16:07:15.768Z,2.80
2018-08-23T16:09:47.326Z,2.60
2018-08-23T16:12:18.769Z,4.23
2018-08-23T16:14:50.210Z,3.00
2018-08-23T16:17:26.797Z,2.77
2018-08-23T16:20:03.357Z,3.57
2018-08-23T16:22:34.772Z,2.87
2018-08-23T16:25:06.353Z,2.80
2018-08-23T16:27:37.911Z,2.73
2018-08-23T16:32:40.023Z,2.50
2018-08-23T16:35:11.677Z,2.97
2018-08-23T16:37:43.219Z,3.10
2018-08-23T16:40:31.606Z,2.73
2018-08-23T16:43:04.656Z,3.50
2018-08-23T16:45:36.314Z,2.60
2018-08-23T16:48:07.799Z,2.67
2018-08-23T16:50:39.338Z,2.70
2018-08-23T16:53:10.814Z,3.30
2018-08-23T16:55:42.232Z,2.73
2018-08-23T16:58:13.627Z,2.67
2018-08-23T17:03:25.615Z,2.72
2018-08-23T17:05:56.682Z,2.93
2018-08-23T17:08:27.810Z,2.50
2018-08-23T17:10:58.805Z,2.50
2018-08-23T17:13:35.608Z,2.60
2018-08-23T17:16:12.568Z,2.73
2018-08-23T17:18:43.612Z,2.60
2018-08-23T17:21:15.211Z,3.10
2018-08-23T17:23:46.729Z,3.67
2018-08-23T17:26:18.312Z,2.50
2018-08-23T17:28:49.768Z,2.43
2018-08-23T17:31:21.309Z,2.50
2018-08-23T17:33:52.808Z,2.87
2018-08-23T17:36:24.193Z,2.80
2018-08-23T17:38:55.699Z,2.70
2018-08-23T17:41:27.206Z,2.70
2018-08-23T17:43:58.750Z,2.70
2018-08-23T17:46:30.340Z,2.20
2018-08-23T17:49:01.848Z,3.60
2018-08-23T17:51:33.419Z,2.37
2018-08-23T17:54:04.864Z,2.63
2018-08-23T17:56:36.897Z,2.43
2018-08-23T17:59:08.525Z,2.90
2018-08-23T18:01:40.061Z,2.70
2018-08-23T18:04:11.661Z,2.40
2018-08-23T18:06:43.239Z,2.63
2018-08-23T18:09:15.422Z,2.60
2018-08-23T18:11:47.010Z,2.70
2018-08-23T18:14:18.631Z,2.83
2018-08-23T18:16:55.200Z,2.57
2018-08-23T18:19:26.736Z,3.37
2018-08-23T18:21:58.383Z,2.43
2018-08-23T18:24:30.276Z,3.77
2018-08-23T18:27:01.822Z,3.03
2018-08-23T18:29:33.187Z,2.90
2018-08-23T18:32:04.805Z,3.77
2018-08-23T18:34:36.332Z,2.63
2018-08-23T18:37:08.519Z,2.83
2018-08-23T18:39:39.866Z,2.63
2018-08-23T18:42:11.805Z,2.40
2018-08-23T18:44:43.408Z,2.53
2018-08-23T18:47:15.210Z,2.53
2018-08-23T18:49:46.741Z,3.17
2018-08-23T18:52:18.393Z,2.70
2018-08-23T18:54:49.813Z,2.50
2018-08-23T18:57:21.323Z,2.80
2018-08-23T18:59:52.867Z,2.53
2018-08-23T19:02:25.306Z,3.00
2018-08-23T19:04:56.810Z,2.80
2018-08-23T19:07:33.440Z,2.73
2018-08-23T19:10:04.806Z,2.37
2018-08-23T19:12:36.350Z,3.27
2018-08-23T19:16:47.816Z,2.65
2018-08-23T19:19:18.779Z,2.37
2018-08-23T19:21:49.908Z,2.83
2018-08-23T19:24:20.814Z,2.55
2018-08-23T19:26:51.884Z,2.60
2018-08-23T19:29:22.860Z,2.50
2018-08-23T19:31:54.015Z,2.70
2018-08-23T19:36:55.933Z,2.60
2018-08-23T19:41:57.793Z,2.33
2018-08-23T19:44:28.985Z,2.87
2018-08-23T19:47:05.303Z,2.57
2018-08-23T19:49:41.534Z,2.73
2018-08-23T19:52:12.730Z,2.37
2018-08-23T19:54:43.865Z,2.43
2018-08-23T19:57:15.004Z,2.63
2018-08-23T19:59:46.655Z,2.20
2018-08-23T20:02:18.059Z,2.30
2018-08-23T20:04:49.634Z,3.80
2018-08-23T20:07:21.315Z,2.50
2018-08-23T20:09:52.794Z,2.57
2018-08-23T20:12:24.336Z,2.60
2018-08-23T20:14:55.817Z,2.53
2018-08-23T20:17:27.398Z,2.60
2018-08-23T20:19:58.994Z,2.37
2018-08-23T20:22:31.214Z,2.47
2018-08-23T20:25:02.740Z,2.30
2018-08-23T20:27:33.796Z,2.20
2018-08-23T20:30:04.877Z,3.03
2018-08-23T20:32:36.568Z,2.50
2018-08-23T20:35:07.888Z,2.50
2018-08-23T20:37:39.338Z,2.90
2018-08-23T20:40:10.814Z,3.37
2018-08-23T20:42:42.409Z,2.23
2018-08-23T20:45:13.856Z,2.70
2018-08-23T20:47:45.485Z,2.50
2018-08-23T20:50:16.857Z,1.97
2018-08-23T20:52:48.424Z,2.50
2018-08-23T20:55:19.826Z,2.40
2018-08-23T20:57:51.257Z,2.43
2018-08-23T21:00:22.475Z,2.50
2018-08-23T21:02:53.907Z,2.40
2018-08-23T21:07:56.204Z,2.53
2018-08-23T21:10:27.637Z,2.53
2018-08-23T21:12:59.193Z,2.50
2018-08-23T21:15:30.793Z,2.10
2018-08-23T21:18:02.466Z,2.37
2018-08-23T21:20:33.622Z,2.20
2018-08-23T21:23:05.214Z,2.60
2018-08-23T21:25:36.613Z,2.70
2018-08-23T21:28:08.218Z,2.20
2018-08-23T21:30:39.733Z,2.10
2018-08-23T21:33:11.656Z,2.23
2018-08-23T21:35:43.397Z,1.90
2018-08-23T21:38:14.691Z,2.22
2018-08-23T21:40:46.220Z,2.27
2018-08-23T21:43:17.990Z,2.50
2018-08-23T21:45:49.632Z,2.10
2018-08-23T21:48:21.197Z,2.50
2018-08-23T21:50:52.753Z,2.37
2018-08-23T21:53:24.298Z,2.40
2018-08-23T21:55:55.761Z,2.20
2018-08-23T21:58:27.218Z,2.47
2018-08-23T22:01:03.750Z,2.47
2018-08-23T22:03:34.780Z,2.47
2018-08-23T22:06:06.611Z,2.30
2018-08-23T22:08:38.207Z,2.63
2018-08-23T22:11:09.830Z,2.87
2018-08-23T22:13:41.402Z,2.50
2018-08-23T22:16:12.892Z,2.30
2018-08-23T22:18:44.431Z,2.40
2018-08-23T22:21:15.970Z,2.40
2018-08-23T22:23:47.836Z,2.00
2018-08-23T22:26:19.443Z,2.70
2018-08-23T22:28:50.986Z,2.63
2018-08-23T22:33:53.226Z,2.63
2018-08-23T22:36:24.742Z,2.20
2018-08-23T22:38:56.203Z,2.20
2018-08-23T22:41:27.753Z,2.57
2018-08-23T22:43:59.306Z,2.40
2018-08-23T22:46:30.769Z,2.30
2018-08-23T22:49:02.381Z,2.60
2018-08-23T22:51:33.896Z,2.40
2018-08-23T22:54:05.615Z,2.30
2018-08-23T22:56:37.044Z,2.70
2018-08-23T22:59:08.709Z,2.70
2018-08-23T23:01:40.681Z,2.37
2018-08-23T23:04:17.201Z,2.47
2018-08-23T23:06:48.708Z,2.30
2018-08-23T23:09:20.536Z,2.37
2018-08-23T23:11:52.217Z,2.80
2018-08-23T23:14:23.721Z,2.50
2018-08-23T23:16:55.620Z,2.20
2018-08-23T23:19:27.017Z,2.00
2018-08-23T23:21:58.627Z,2.30
2018-08-23T23:24:35.296Z,2.30
2018-08-23T23:27:07.734Z,2.40
2018-08-23T23:29:39.612Z,2.47
2018-08-23T23:32:11.208Z,2.17
2018-08-23T23:34:42.726Z,2.47
2018-08-23T23:37:14.199Z,2.57
2018-08-23T23:39:45.722Z,2.50
2018-08-23T23:42:17.367Z,3.30
2018-08-23T23:44:48.906Z,2.20
2018-08-23T23:47:20.289Z,2.23
2018-08-23T23:49:51.781Z,2.50
2018-08-23T23:52:23.468Z,2.10
2018-08-23T23:54:55.215Z,2.20
2018-08-23T23:57:26.728Z,2.50
2018-08-23T23:59:58.213Z,2.43
